Time;durP1;ratioP1;P1;durP2;ratioP2;P2;SDS_P1;SDS_P2;PMS_P1;PMS_P2;Temp;Humidity;BMP_temperature;BMP_pressure;BME280_temperature;BME280_humidity;BME280_pressure;Samples;Min_cycle;Max_cycle;Signal;HPM_P1;HPM_P2
2020/12/21 00:00:10;;;;;;;3.58;1.30;;;6.30;99.90;;;4.47;87.13;101771.16;4994815;28;20046;-40
2020/12/21 00:02:48;;;;;;;4.45;1.60;;;6.30;99.90;;;4.43;87.38;101776.00;5011057;28;20050;-40
2020/12/21 00:05:16;;;;;;;7.13;1.90;;;6.20;99.90;;;4.42;87.39;101778.84;4977911;28;20136;-40
2020/12/21 00:07:43;;;;;;;9.70;1.98;;;6.20;99.90;;;4.41;87.75;101771.75;4994562;28;20048;-40
2020/12/21 00:10:11;;;;;;;10.30;2.20;;;6.20;99.90;;;4.39;87.54;101769.19;4978128;28;20042;-40
2020/12/21 00:12:38;;;;;;;6.35;2.33;;;6.20;99.90;;;4.33;88.14;101758.97;5010349;28;20038;-40
2020/12/21 00:15:06;;;;;;;7.97;1.55;;;6.10;99.90;;;4.32;87.64;101762.69;4961917;28;20421;-40
2020/12/21 00:17:35;;;;;;;7.45;1.77;;;6.10;99.90;;;4.29;87.51;101762.97;4997158;28;20041;-40
2020/12/21 00:20:04;;;;;;;8.93;2.05;;;6.10;99.90;;;4.26;87.71;101763.28;4998368;28;20469;-40
2020/12/21 00:22:31;;;;;;;6.57;1.60;;;6.10;99.90;;;4.27;87.85;101756.88;5014458;28;20092;-40
2020/12/21 00:24:58;;;;;;;4.75;1.63;;;6.00;99.90;;;4.25;87.74;101761.56;4965848;28;20052;-40
2020/12/21 00:27:25;;;;;;;7.65;1.75;;;6.00;99.90;;;4.29;88.65;101766.50;4965829;28;20413;-40
2020/12/21 00:29:52;;;;;;;7.55;1.77;;;6.00;99.90;;;4.25;88.72;101765.13;4981981;28;20066;-40
2020/12/21 00:32:20;;;;;;;4.50;1.65;;;6.00;99.90;;;4.22;88.66;101760.00;4981880;28;20408;-40
2020/12/21 00:34:47;;;;;;;3.50;1.20;;;6.00;99.90;;;4.22;88.07;101761.84;4965888;28;20038;-40
2020/12/21 00:37:14;;;;;;;3.83;1.63;;;6.00;99.90;;;4.18;88.17;101758.59;4949962;28;20052;-40
2020/12/21 00:39:42;;;;;;;5.00;1.52;;;6.00;99.90;;;4.14;88.67;101755.34;4965920;28;21060;-40
2020/12/21 00:42:09;;;;;;;6.40;1.40;;;5.90;99.90;;;4.08;87.95;101755.94;4965677;28;20076;-40
2020/12/21 00:44:36;;;;;;;4.57;1.77;;;5.90;99.90;;;4.03;88.33;101761.75;5013844;28;20510;-40
2020/12/21 00:47:04;;;;;;;5.23;1.63;;;5.80;99.90;;;4.01;88.66;101760.22;4997503;28;20451;-40
2020/12/21 00:49:32;;;;;;;5.05;1.63;;;5.80;99.90;;;3.96;88.35;101759.78;4998058;28;20049;-40
2020/12/21 00:52:01;;;;;;;6.47;1.90;;;5.80;99.90;;;3.93;88.80;101760.94;4997724;28;20416;-40
2020/12/21 00:54:29;;;;;;;4.70;1.50;;;5.70;99.90;;;3.91;88.88;101764.78;4981432;28;20133;-40
2020/12/21 00:56:58;;;;;;;8.88;1.83;;;5.70;99.90;;;3.86;88.93;101757.13;4981437;28;20057;-40
2020/12/21 00:59:25;;;;;;;10.30;1.63;;;5.70;99.90;;;3.84;88.24;101753.69;4981398;28;20046;-40
2020/12/21 01:01:52;;;;;;;5.27;1.43;;;5.70;99.90;;;3.82;88.79;101758.41;4965491;28;20046;-40
2020/12/21 01:04:21;;;;;;;5.30;1.60;;;5.60;99.90;;;3.74;88.42;101762.69;4965262;28;20104;-40
2020/12/21 01:06:54;;;;;;;6.35;1.42;;;5.60;99.90;;;3.67;88.48;101763.38;4966193;28;20054;-40
2020/12/21 01:09:22;;;;;;;3.67;1.38;;;5.50;99.90;;;3.60;88.43;101760.44;4981468;28;20073;-40
2020/12/21 01:11:53;;;;;;;4.33;1.57;;;5.50;99.90;;;3.55;89.13;101763.56;4965061;28;20583;-40
2020/12/21 01:14:20;;;;;;;5.18;1.33;;;5.40;99.90;;;3.49;89.58;101758.75;4997573;28;20084;-40
2020/12/21 01:16:48;;;;;;;8.68;1.52;;;5.40;99.90;;;3.44;88.25;101761.84;4981363;28;20046;-40
2020/12/21 01:19:15;;;;;;;6.22;1.55;;;5.30;99.90;;;3.38;88.18;101764.25;4981033;28;20129;-40
2020/12/21 01:21:42;;;;;;;5.03;1.30;;;5.20;99.90;;;3.36;89.85;101764.41;4996860;28;20196;-40
2020/12/21 01:24:10;;;;;;;4.07;1.40;;;5.20;99.90;;;3.38;89.63;101769.66;4980897;28;20049;-40
2020/12/21 01:26:37;;;;;;;9.00;1.70;;;5.20;99.90;;;3.38;90.14;101767.81;4949421;28;20108;-40
2020/12/21 01:29:04;;;;;;;4.63;1.30;;;5.20;99.90;;;3.34;90.15;101774.50;4964904;28;20042;-40
2020/12/21 01:31:32;;;;;;;7.57;1.57;;;5.20;99.90;;;3.33;90.12;101772.81;4964953;28;20438;-40
2020/12/21 01:34:12;;;;;;;4.60;1.60;;;5.20;99.90;;;3.31;90.02;101769.38;4998224;28;20440;-40
2020/12/21 01:36:41;;;;;;;4.78;1.55;;;5.20;99.90;;;3.30;90.32;101768.53;4981884;28;20471;-40
2020/12/21 01:39:09;;;;;;;3.70;1.50;;;5.10;99.90;;;3.30;89.95;101771.22;4996698;28;20092;-40
2020/12/21 01:41:37;;;;;;;8.18;2.45;;;5.10;99.90;;;3.26;90.98;101775.19;4964594;28;20042;-40
2020/12/21 01:44:04;;;;;;;4.00;1.42;;;5.10;99.90;;;3.27;89.71;101773.34;4980804;28;20042;-40
2020/12/21 01:46:32;;;;;;;6.38;1.30;;;5.10;99.90;;;3.33;90.14;101769.25;4948712;28;20057;-40
2020/12/21 01:48:59;;;;;;;4.85;1.73;;;5.10;99.90;;;3.29;90.55;101769.53;4964867;28;20064;-40
2020/12/21 01:51:28;;;;;;;6.93;1.63;;;5.10;99.90;;;3.27;90.52;101770.66;4980493;28;20498;-40
2020/12/21 01:53:57;;;;;;;4.50;1.45;;;5.10;99.90;;;3.23;90.15;101772.78;4980366;28;20038;-40
2020/12/21 01:56:25;;;;;;;5.80;1.48;;;5.10;99.90;;;3.26;90.73;101774.34;5012809;28;20042;-40
2020/12/21 01:58:53;;;;;;;5.72;1.60;;;5.10;99.90;;;3.25;91.03;101776.19;4980527;28;20504;-40
2020/12/21 02:01:21;;;;;;;5.72;1.52;;;5.10;99.90;;;3.23;90.73;101772.78;4964277;28;20045;-40
2020/12/21 02:03:49;;;;;;;5.32;1.35;;;5.00;99.90;;;3.25;90.85;101772.63;4980090;28;20205;-40
2020/12/21 02:06:17;;;;;;;;;;;5.10;99.90;;;3.21;90.53;101773.91;4980714;28;20475;-40
2020/12/21 02:08:46;;;;;;;;;;;5.00;99.90;;;3.20;90.16;101775.78;4996979;28;20388;-40
2020/12/21 02:11:14;;;;;;;6.07;1.52;;;5.00;99.90;;;3.22;91.04;101771.09;4996066;28;20391;-40
2020/12/21 02:13:42;;;;;;;4.97;1.35;;;5.00;99.90;;;3.22;91.17;101771.09;4979915;28;20038;-40
2020/12/21 02:16:14;;;;;;;4.15;1.67;;;5.00;99.90;;;3.21;90.70;101766.69;4964359;28;20053;-40
2020/12/21 02:18:43;;;;;;;4.85;1.40;;;5.00;99.90;;;3.20;90.46;101772.22;4965522;28;20077;-40
2020/12/21 02:21:10;;;;;;;5.60;1.35;;;5.10;99.90;;;3.21;90.89;101780.16;4948156;28;20049;-40
2020/12/21 02:23:38;;;;;;;3.95;1.17;;;5.00;99.90;;;3.22;90.77;101773.78;4979727;28;20057;-40
2020/12/21 02:26:06;;;;;;;9.52;1.63;;;5.00;99.90;;;3.24;90.61;101773.63;4980338;28;20046;-40
2020/12/21 02:28:34;;;;;;;4.00;1.42;;;5.00;99.90;;;3.20;90.85;101769.50;4995959;28;20053;-40
2020/12/21 02:31:02;;;;;;;5.78;1.35;;;5.00;99.90;;;3.14;90.77;101768.22;4964094;28;20046;-40
2020/12/21 02:33:29;;;;;;;5.82;1.23;;;5.00;99.90;;;3.11;90.17;101766.69;4963312;28;20512;-40
2020/12/21 02:35:57;;;;;;;2.92;1.15;;;5.00;99.90;;;3.09;90.48;101760.56;4947818;28;20037;-40
2020/12/21 02:38:24;;;;;;;7.03;1.65;;;4.90;99.90;;;3.07;90.39;101773.34;4947765;28;20038;-40
2020/12/21 02:40:51;;;;;;;5.80;1.80;;;4.90;99.90;;;3.07;89.98;101775.16;4995110;28;20038;-40
2020/12/21 02:43:20;;;;;;;3.88;1.23;;;4.90;99.90;;;3.07;90.60;101770.66;4995559;28;20050;-40
2020/12/21 02:45:49;;;;;;;6.03;1.52;;;4.90;99.90;;;3.07;90.65;101769.78;4995906;28;20073;-40
2020/12/21 02:48:17;;;;;;;5.82;1.60;;;4.90;99.90;;;3.10;91.54;101769.50;4963555;28;20145;-40
2020/12/21 02:50:45;;;;;;;4.18;1.50;;;4.90;99.90;;;3.12;90.69;101778.28;4995382;28;20048;-40
2020/12/21 02:53:16;;;;;;;5.55;1.42;;;4.90;99.90;;;3.13;91.02;101770.09;4947283;28;20129;-40
2020/12/21 02:55:45;;;;;;;7.90;1.70;;;4.90;99.90;;;3.13;90.75;101763.81;5011773;28;20050;-40
2020/12/21 02:58:14;;;;;;;;;;;4.90;99.90;;;3.12;91.04;101775.59;4963881;28;20042;-40
2020/12/21 03:00:43;;;;;;;6.68;1.52;;;4.90;99.90;;;3.17;91.34;101773.34;5027902;28;19922;-40
2020/12/21 03:03:13;;;;;;;7.07;1.90;;;5.00;99.90;;;3.12;90.52;101772.91;4995565;28;20108;-40
2020/12/21 03:05:41;;;;;;;5.70;1.77;;;5.00;99.90;;;3.15;90.88;101778.00;4963249;28;20042;-40
2020/12/21 03:08:11;;;;;;;4.63;1.45;;;5.00;99.90;;;3.16;90.18;101774.31;4995141;28;20111;-40
2020/12/21 03:10:39;;;;;;;5.03;1.60;;;5.00;99.90;;;3.18;90.39;101769.63;4963170;28;20149;-40
2020/12/21 03:13:07;;;;;;;4.10;1.70;;;5.00;99.90;;;3.16;89.96;101769.78;4979122;28;20121;-40
2020/12/21 03:15:35;;;;;;;5.43;1.97;;;5.00;99.90;;;3.13;90.69;101769.22;4946953;28;20053;-40
2020/12/21 03:18:03;;;;;;;7.55;2.05;;;4.90;99.90;;;3.12;89.90;101768.38;4979090;28;20842;-40
2020/12/21 03:20:31;;;;;;;6.63;1.70;;;4.90;99.90;;;3.09;89.85;101776.75;4978852;28;20069;-40
2020/12/21 03:22:59;;;;;;;7.60;1.70;;;4.90;99.90;;;3.06;90.28;101763.56;4979086;28;20413;-40
2020/12/21 03:25:27;;;;;;;6.63;2.30;;;4.90;99.90;;;3.11;89.98;101765.81;4962846;28;20054;-40
2020/12/21 03:27:54;;;;;;;6.65;1.92;;;4.90;99.90;;;3.07;90.63;101761.69;4963281;28;20104;-40
2020/12/21 03:30:21;;;;;;;8.13;2.40;;;4.90;99.90;;;3.01;90.16;101755.88;4947112;28;20066;-40
2020/12/21 03:32:52;;;;;;;9.15;2.15;;;4.90;99.90;;;3.00;90.75;101751.47;4979867;28;20053;-40
2020/12/21 03:35:26;;;;;;;4.43;1.75;;;4.80;99.90;;;3.06;90.64;101752.75;4995735;28;20053;-40
2020/12/21 03:37:54;;;;;;;7.70;2.00;;;4.90;99.90;;;3.05;89.90;101753.75;4946961;28;20129;-40
2020/12/21 03:40:22;;;;;;;7.22;2.88;;;4.80;99.90;;;3.03;90.68;101750.31;4978970;28;20065;-40
2020/12/21 03:42:49;;;;;;;6.50;2.13;;;4.80;99.90;;;3.06;89.73;101744.69;4962424;28;20046;-40
2020/12/21 03:45:17;;;;;;;6.63;2.00;;;4.80;99.90;;;3.11;90.52;101738.84;4978106;28;20058;-40
2020/12/21 03:47:45;;;;;;;;;;;4.90;99.90;;;3.08;90.14;101733.72;4963373;28;20512;-40
2020/12/21 03:50:12;;;;;;;6.03;1.92;;;4.90;99.90;;;3.06;90.15;101739.28;4978387;28;20354;-40
2020/12/21 03:52:40;;;;;;;5.20;1.80;;;4.90;99.90;;;3.09;90.17;101732.75;4978295;28;20451;-40
2020/12/21 03:55:07;;;;;;;9.07;1.88;;;4.90;99.90;;;3.08;90.31;101736.44;4946472;28;20124;-40
2020/12/21 03:57:35;;;;;;;5.45;1.77;;;4.90;99.90;;;3.09;90.31;101733.59;4978397;28;20076;-40
2020/12/21 04:00:06;;;;;;;5.07;1.97;;;4.90;99.90;;;3.10;90.48;101739.84;4978340;28;20133;-40
2020/12/21 04:02:39;;;;;;;6.05;1.65;;;4.90;99.90;;;3.08;90.51;101731.03;5010583;28;20138;-40
2020/12/21 04:05:07;;;;;;;5.10;1.70;;;4.90;99.90;;;3.06;89.75;101738.41;4962128;28;20324;-40
2020/12/21 04:07:36;;;;;;;6.78;2.03;;;4.90;99.90;;;3.03;89.96;101742.22;4978494;28;20042;-40
2020/12/21 04:10:06;;;;;;;5.20;1.98;;;4.80;99.90;;;3.02;89.93;101738.69;4994481;28;20125;-40
2020/12/21 04:12:35;;;;;;;5.53;1.85;;;4.80;99.90;;;2.99;90.28;101733.59;4977851;28;20467;-40
2020/12/21 04:15:06;;;;;;;3.88;1.60;;;4.80;99.90;;;3.00;89.85;101740.69;4994101;28;20052;-40
2020/12/21 04:17:34;;;;;;;4.22;1.77;;;4.80;99.90;;;2.97;90.31;101740.97;5010427;28;20049;-40
2020/12/21 04:20:01;;;;;;;6.75;2.78;;;4.80;99.90;;;3.00;89.88;101737.13;4978348;28;20065;-40
2020/12/21 04:22:29;;;;;;;6.07;1.65;;;4.80;99.90;;;2.95;90.13;101742.09;4962482;28;20123;-40
2020/12/21 04:24:56;;;;;;;5.90;1.93;;;4.80;99.90;;;2.96;89.75;101741.97;4962148;28;20052;-39
2020/12/21 04:27:23;;;;;;;4.75;2.20;;;4.70;99.90;;;2.97;89.73;101743.66;4978475;28;20858;-40
2020/12/21 04:29:51;;;;;;;4.72;1.60;;;4.80;99.90;;;2.93;90.09;101736.84;4962247;28;20050;-40
2020/12/21 04:32:18;;;;;;;5.60;1.70;;;4.70;99.90;;;2.92;89.88;101731.59;4946423;28;20500;-40
2020/12/21 04:34:45;;;;;;;2.72;1.60;;;4.70;99.90;;;2.94;90.54;101735.00;4962047;28;21048;-40
2020/12/21 04:37:13;;;;;;;5.40;2.07;;;4.70;99.90;;;2.92;90.19;101734.28;4946397;28;20125;-40
2020/12/21 04:39:40;;;;;;;4.43;1.60;;;4.70;99.90;;;2.92;90.04;101723.50;4978075;28;20066;-40
2020/12/21 04:42:08;;;;;;;8.20;1.98;;;4.70;99.90;;;3.02;90.29;101733.31;4947370;28;20061;-40
2020/12/21 04:44:36;;;;;;;;;;;4.80;99.90;;;2.98;90.12;101731.88;4946388;28;20042;-40
2020/12/21 04:47:05;;;;;;;7.20;1.50;;;4.80;99.90;;;2.96;90.00;101728.47;4993972;28;20376;-40
2020/12/21 04:49:35;;;;;;;6.65;1.58;;;4.80;99.90;;;2.94;90.41;101729.59;5010081;28;20069;-40
2020/12/21 04:52:06;;;;;;;7.55;1.67;;;4.70;99.90;;;2.87;90.22;101718.53;4993700;28;20046;-40
2020/12/21 04:54:34;;;;;;;5.68;1.60;;;4.70;99.90;;;2.92;90.12;101727.06;4993850;28;20038;-40
2020/12/21 04:57:01;;;;;;;5.60;1.88;;;4.70;99.90;;;2.98;90.40;101728.31;4946308;28;20046;-40
2020/12/21 04:59:28;;;;;;;8.60;1.95;;;4.80;99.90;;;3.11;91.01;101733.44;4962054;28;20038;-40
2020/12/21 05:01:56;;;;;;;7.70;2.00;;;4.80;99.90;;;3.20;91.33;101704.78;4977787;28;20042;-40
2020/12/21 05:04:25;;;;;;;4.32;1.60;;;4.90;99.90;;;3.22;90.97;101700.97;4965207;28;20128;-40
2020/12/21 05:06:56;;;;;;;4.75;1.65;;;4.90;99.90;;;3.28;91.43;101707.59;4981588;28;20069;-40
2020/12/21 05:09:25;;;;;;;5.13;2.20;;;5.00;99.90;;;3.30;90.66;101693.00;4981324;28;20155;-40
2020/12/21 05:12:05;;;;;;;6.50;2.15;;;5.00;99.90;;;3.37;90.22;101692.41;4981242;28;20545;-40
2020/12/21 05:14:37;;;;;;;4.43;1.73;;;5.10;99.90;;;3.39;90.15;101675.09;4965505;28;20042;-40
2020/12/21 05:17:16;;;;;;;6.75;2.10;;;5.10;99.90;;;3.49;89.44;101679.63;4997196;28;20566;-40
2020/12/21 05:19:45;;;;;;;6.45;2.30;;;5.20;99.90;;;3.54;89.92;101680.91;5013330;28;20038;-40
2020/12/21 05:22:15;;;;;;;6.38;1.65;;;5.20;99.90;;;3.63;89.21;101683.72;4965112;28;20056;-40
2020/12/21 05:24:44;;;;;;;5.82;1.63;;;5.30;99.90;;;3.68;88.24;101673.31;4996932;28;20081;-40
2020/12/21 05:27:15;;;;;;;4.68;2.10;;;5.40;99.90;;;3.70;88.68;101668.63;4949255;28;20045;-40
2020/12/21 05:29:53;;;;;;;5.82;1.77;;;5.40;99.90;;;3.79;88.57;101672.31;5013206;28;20046;-40
2020/12/21 05:32:22;;;;;;;3.67;1.83;;;5.50;99.90;;;3.79;88.65;101678.56;4980543;28;20054;-40
2020/12/21 05:34:52;;;;;;;3.90;1.75;;;5.50;99.90;;;3.92;88.08;101677.38;4996615;28;20468;-40
2020/12/21 05:37:21;;;;;;;6.38;1.80;;;5.60;99.90;;;4.00;87.39;101667.53;5014354;28;20073;-40
2020/12/21 05:39:54;;;;;;;5.57;1.55;;;5.60;99.90;;;4.08;87.32;101664.09;4996586;28;20136;-40
2020/12/21 05:42:24;;;;;;;5.13;1.73;;;5.70;99.90;;;4.07;86.86;101670.50;5014003;28;20038;-40
2020/12/21 05:45:04;;;;;;;4.40;1.70;;;5.80;99.90;;;4.05;86.51;101661.72;5013843;28;20073;-40
2020/12/21 05:47:31;;;;;;;4.43;1.60;;;5.80;99.90;;;4.07;86.50;101659.72;5012801;28;20073;-40
2020/12/21 05:50:04;;;;;;;7.53;1.63;;;5.80;99.90;;;4.03;87.11;101653.75;4980649;28;20049;-40
2020/12/21 05:52:35;;;;;;;5.00;1.60;;;5.80;99.90;;;4.04;87.04;101668.09;5012539;28;20393;-40
2020/12/21 05:55:14;;;;;;;5.00;1.83;;;5.80;99.90;;;4.01;86.91;101663.00;4997181;28;20590;-40
2020/12/21 05:57:42;;;;;;;6.80;1.75;;;5.80;99.90;;;4.03;87.21;101667.25;5012653;28;20530;-40
2020/12/21 06:00:14;;;;;;;5.82;1.48;;;5.70;99.90;;;4.02;86.22;101660.13;4996614;28;20056;-40
2020/12/21 06:02:41;;;;;;;6.88;1.85;;;5.70;99.90;;;4.06;86.03;101665.25;4996705;28;20049;-40
2020/12/21 06:05:12;;;;;;;6.07;1.80;;;5.80;99.90;;;4.00;86.70;101662.13;4980214;28;20080;-40
2020/12/21 06:07:50;;;;;;;4.60;1.30;;;5.70;99.90;;;3.96;86.67;101649.94;5013846;28;20455;-40
2020/12/21 06:10:18;;;;;;;5.00;1.80;;;5.70;99.90;;;3.92;86.38;101643.16;5012463;28;20049;-40
2020/12/21 06:12:50;;;;;;;4.43;1.65;;;5.70;99.90;;;3.97;86.10;101642.69;4964023;28;20041;-40
2020/12/21 06:15:25;;;;;;;5.28;1.65;;;5.70;99.90;;;3.96;87.12;101644.53;5012278;28;20042;-40
2020/12/21 06:17:53;;;;;;;5.25;1.92;;;5.70;99.90;;;4.03;86.25;101644.81;5012216;28;20104;-40
2020/12/21 06:20:22;;;;;;;4.10;1.45;;;5.70;99.90;;;3.99;86.08;101648.81;5012389;28;20038;-40
2020/12/21 06:22:48;;;;;;;7.78;1.70;;;5.70;99.90;;;4.01;87.14;101652.22;4995938;28;20053;-40
2020/12/21 06:25:26;;;;;;;3.40;1.58;;;5.70;99.90;;;4.05;86.00;101653.59;4979796;28;20129;-40
2020/12/21 06:27:55;;;;;;;5.18;1.63;;;5.70;99.90;;;4.11;86.21;101655.69;4995939;28;20424;-40
2020/12/21 06:30:31;;;;;;;8.18;1.80;;;5.80;99.90;;;4.14;85.83;101650.00;5012251;28;20050;-40
2020/12/21 06:33:03;;;;;;;4.32;1.63;;;5.80;99.90;;;4.07;86.23;101651.59;4995639;28;20042;-40
2020/12/21 06:35:42;;;;;;;5.43;1.88;;;5.80;99.90;;;4.12;86.92;101659.28;4996073;28;20125;-40
2020/12/21 06:38:10;;;;;;;6.28;1.90;;;5.80;99.90;;;4.11;86.78;101652.13;4995684;28;20049;-40
2020/12/21 06:40:37;;;;;;;5.43;2.00;;;5.80;99.90;;;4.10;86.33;101648.59;4963941;28;20445;-40
2020/12/21 06:43:14;;;;;;;5.50;2.10;;;5.80;99.90;;;4.04;86.98;101665.41;5012892;28;20100;-40
2020/12/21 06:45:43;;;;;;;5.80;2.05;;;5.80;99.90;;;4.08;86.66;101661.41;5011855;28;20424;-40
2020/12/21 06:48:21;;;;;;;5.72;2.25;;;5.80;99.90;;;4.02;87.30;101660.13;5011828;28;20061;-40
2020/12/21 06:50:48;;;;;;;5.78;1.67;;;5.80;99.90;;;3.95;86.66;101647.38;5011780;28;20108;-40
2020/12/21 06:53:15;;;;;;;8.07;2.27;;;5.70;99.90;;;3.99;87.46;101648.81;4963363;28;20069;-40
2020/12/21 06:55:43;;;;;;;5.75;2.08;;;5.70;99.90;;;3.87;87.60;101630.06;4979690;28;20042;-40
2020/12/21 06:58:10;;;;;;;6.57;2.00;;;5.70;99.90;;;4.00;87.20;101631.59;5012860;28;20041;-40
2020/12/21 07:00:37;;;;;;;6.00;1.75;;;5.70;99.90;;;4.07;87.32;101640.81;4995169;28;20046;-40
2020/12/21 07:03:08;;;;;;;6.95;2.00;;;5.80;99.90;;;4.04;87.07;101651.91;4979167;28;20046;-40
2020/12/21 07:05:35;;;;;;;7.80;2.28;;;5.80;99.90;;;4.12;87.10;101651.16;5011228;28;20053;-40
2020/12/21 07:08:04;;;;;;;4.40;1.85;;;5.80;99.90;;;4.13;86.56;101642.91;5011239;28;20508;-40
2020/12/21 07:10:31;;;;;;;6.10;1.90;;;5.90;99.90;;;4.12;86.95;101648.47;5011485;28;20056;-40
2020/12/21 07:12:58;;;;;;;5.72;1.85;;;5.80;99.90;;;4.05;87.02;101640.09;5011163;28;20054;-40
2020/12/21 07:15:26;;;;;;;7.78;1.95;;;5.80;99.90;;;4.10;86.59;101645.91;4978947;28;20050;-40
2020/12/21 07:17:54;;;;;;;4.72;1.83;;;5.80;99.90;;;4.12;86.76;101648.47;4963084;28;20057;-40
2020/12/21 07:20:22;;;;;;;6.18;2.20;;;5.80;99.90;;;4.09;87.12;101644.19;4994948;28;20065;-40
2020/12/21 07:22:50;;;;;;;6.50;1.90;;;5.80;99.90;;;4.07;86.85;101632.69;5011233;28;20041;-40
2020/12/21 07:25:17;;;;;;;5.80;1.80;;;5.80;99.90;;;4.07;87.53;101630.00;4962439;28;20050;-40
2020/12/21 07:27:47;;;;;;;6.45;2.08;;;5.80;99.90;;;4.12;87.02;101630.41;4994869;28;21052;-40
2020/12/21 07:30:15;;;;;;;4.35;1.92;;;5.90;99.90;;;4.25;86.90;101640.00;4994822;28;20058;-40
2020/12/21 07:32:42;;;;;;;4.50;2.20;;;5.90;99.90;;;4.41;86.66;101640.19;4978712;28;20046;-40
2020/12/21 07:35:12;;;;;;;4.03;1.90;;;6.00;99.90;;;4.42;86.71;101635.63;4994631;28;20050;-40
2020/12/21 07:38:09;;;;;;;4.07;1.90;;;6.10;99.90;;;4.50;86.46;101630.31;5011191;28;20053;-40
2020/12/21 07:40:38;;;;;;;5.28;1.83;;;6.10;99.90;;;4.48;86.49;101621.50;5011136;28;20062;-40
2020/12/21 07:43:17;;;;;;;4.88;2.10;;;6.20;99.90;;;4.58;86.63;101634.97;4994022;28;20054;-40
2020/12/21 07:45:51;;;;;;;4.88;2.03;;;6.20;99.90;;;4.54;86.15;101639.81;5009985;28;20129;-40
2020/12/21 07:48:18;;;;;;;4.25;2.03;;;6.20;99.90;;;4.58;86.58;101629.56;5010003;28;20074;-40
2020/12/21 07:50:47;;;;;;;7.45;2.38;;;6.20;99.90;;;4.58;86.15;101626.84;5009959;28;20048;-40
2020/12/21 07:53:16;;;;;;;6.45;2.17;;;6.20;99.90;;;4.57;86.26;101630.56;4993417;28;20041;-40
2020/12/21 07:55:56;;;;;;;5.05;2.00;;;6.20;99.90;;;4.68;86.49;101630.31;5009871;28;20046;-40
2020/12/21 07:58:25;;;;;;;6.57;2.17;;;6.30;99.90;;;4.68;85.94;101643.84;5011195;28;20428;-40
2020/12/21 08:01:04;;;;;;;5.75;2.10;;;6.40;99.90;;;4.75;85.76;101642.22;5010049;28;20042;-40
2020/12/21 08:03:31;;;;;;;;;;;6.40;99.90;;;4.82;85.34;101636.22;4993816;28;20096;-40
2020/12/21 08:06:22;;;;;;;5.53;2.03;;;6.50;99.90;;;4.80;85.15;101639.06;5010936;28;19922;-40
2020/12/21 08:08:50;;;;;;;7.05;2.03;;;6.40;99.90;;;4.83;85.40;101638.75;5011081;28;20129;-40
2020/12/21 08:11:20;;;;;;;5.13;1.92;;;6.50;99.90;;;4.87;84.79;101632.03;4993969;28;20433;-40
2020/12/21 08:13:56;;;;;;;8.35;2.53;;;6.50;99.90;;;4.90;85.39;101625.47;5009234;28;20038;-40
2020/12/21 08:16:25;;;;;;;6.50;2.15;;;6.60;99.90;;;4.73;84.77;101600.97;5009625;28;20477;-40
2020/12/21 08:18:53;;;;;;;6.82;1.90;;;6.60;99.90;;;4.92;85.19;101628.88;5011124;28;20057;-40
2020/12/21 08:21:24;;;;;;;6.00;2.00;;;6.60;99.90;;;4.99;84.69;101629.94;4993743;28;20100;-40
2020/12/21 08:24:00;;;;;;;7.32;1.90;;;6.60;99.90;;;4.98;84.78;101620.13;5009276;28;20042;-40
2020/12/21 08:26:27;;;;;;;5.65;2.10;;;6.60;99.90;;;5.03;84.71;101615.09;4993418;28;20553;-40
2020/12/21 08:28:55;;;;;;;6.30;2.10;;;6.70;99.90;;;5.08;84.30;101608.38;4993506;28;20045;-40
2020/12/21 08:31:25;;;;;;;6.20;1.88;;;6.70;99.90;;;5.15;84.31;101612.16;4993454;28;20558;-40
2020/12/21 08:34:04;;;;;;;5.25;1.98;;;6.80;99.90;;;5.22;84.20;101606.97;4960698;28;20046;-40
2020/12/21 08:36:41;;;;;;;7.20;2.00;;;6.80;99.90;;;5.23;84.32;101603.25;5009573;28;20125;-40
2020/12/21 08:39:20;;;;;;;5.05;1.70;;;6.80;99.90;;;5.30;84.20;101593.47;5013848;28;20100;-40
2020/12/21 08:41:55;;;;;;;5.27;1.63;;;6.90;99.90;;;5.31;83.69;101600.59;4985021;28;805950;-40
2020/12/21 08:44:26;;;;;;;7.13;2.03;;;6.90;99.90;;;5.33;83.85;101602.16;5014076;28;20149;-40
2020/12/21 08:46:58;;;;;;;5.25;1.95;;;6.90;99.90;;;5.36;83.45;101597.41;4998467;28;20133;-40
2020/12/21 08:49:27;;;;;;;7.07;1.83;;;7.00;99.90;;;5.41;83.69;101603.19;5015166;28;20046;-40
2020/12/21 08:52:01;;;;;;;8.45;2.05;;;7.00;99.90;;;5.47;83.42;101605.25;5013860;28;20056;-40
2020/12/21 08:54:28;;;;;;;5.38;1.88;;;7.10;99.90;;;5.50;83.26;101604.09;5013585;28;20133;-40
2020/12/21 08:56:57;;;;;;;8.18;2.10;;;7.10;99.90;;;5.50;83.40;101602.22;5013886;28;20122;-40
2020/12/21 08:59:25;;;;;;;7.85;1.90;;;7.10;99.90;;;5.56;83.38;101596.16;5013801;28;20560;-40
2020/12/21 09:01:52;;;;;;;;;;;7.10;99.90;;;5.57;82.83;101605.16;5015451;28;20048;-40
2020/12/21 09:04:19;;;;;;;6.45;1.90;;;7.20;99.90;;;5.56;83.27;101598.03;5014689;28;20362;-40
2020/12/21 09:06:46;;;;;;;9.93;1.70;;;7.20;99.90;;;5.60;83.49;101596.72;4997721;28;20042;-40
2020/12/21 09:09:13;;;;;;;5.63;1.83;;;7.20;99.90;;;5.61;83.03;101601.97;4997341;28;20482;-40
2020/12/21 09:11:41;;;;;;;5.82;1.80;;;7.20;99.90;;;5.67;83.25;101596.91;4997203;28;20042;-40
2020/12/21 09:14:08;;;;;;;7.80;1.73;;;7.30;99.90;;;5.72;82.76;101594.56;4981100;28;20443;-40
2020/12/21 09:16:38;;;;;;;5.72;1.40;;;7.30;99.90;;;5.75;82.59;101586.13;4981231;28;20066;-40
2020/12/21 09:19:05;;;;;;;3.85;1.58;;;7.30;99.90;;;5.78;82.72;101591.22;4998011;28;20092;-40
2020/12/21 09:21:33;;;;;;;3.97;1.70;;;7.40;99.90;;;5.80;82.82;101591.91;4981440;28;20058;-40
2020/12/21 09:24:01;;;;;;;4.73;1.90;;;7.40;99.90;;;5.84;82.38;101581.59;5014282;28;20539;-40
2020/12/21 09:26:28;;;;;;;;;;;7.40;99.90;;;5.87;82.35;101579.41;5013929;28;20040;-40
2020/12/21 09:28:55;;;;;;;4.32;1.83;;;7.40;99.90;;;5.90;82.25;101575.53;5015061;28;19925;-40
2020/12/21 09:31:23;;;;;;;6.65;1.60;;;7.50;99.90;;;5.96;82.23;101574.88;4996856;28;20044;-40
2020/12/21 09:33:52;;;;;;;8.75;1.50;;;7.50;99.90;;;5.97;82.14;101562.19;4996581;28;20048;-40
2020/12/21 09:36:21;;;;;;;4.47;1.42;;;7.50;99.90;;;6.03;81.95;101564.25;4996842;28;20073;-40
2020/12/21 09:38:49;;;;;;;6.47;1.55;;;7.60;99.90;;;6.02;81.89;101560.72;5013247;28;20038;-40
2020/12/21 09:41:19;;;;;;;7.18;1.70;;;7.60;99.90;;;6.05;82.34;101562.22;4996623;28;20050;-40
2020/12/21 09:43:49;;;;;;;4.70;1.70;;;7.60;99.90;;;6.08;82.05;101553.78;5013723;28;20129;-40
2020/12/21 09:46:20;;;;;;;7.50;2.08;;;7.70;99.90;;;6.08;82.23;101561.91;4964865;28;20136;-40
2020/12/21 09:48:49;;;;;;;6.13;1.85;;;7.70;99.90;;;6.07;82.42;101557.50;5012938;28;20472;-40
2020/12/21 09:51:17;;;;;;;4.38;1.50;;;7.70;99.90;;;6.10;82.35;101557.19;4996797;28;20041;-40
2020/12/21 09:53:45;;;;;;;5.65;1.40;;;7.70;99.90;;;6.08;82.38;101548.34;4996414;28;20061;-40
2020/12/21 09:56:16;;;;;;;5.93;1.70;;;7.70;99.90;;;6.09;82.42;101547.34;5012462;28;20571;-40
2020/12/21 09:58:46;;;;;;;5.72;1.60;;;7.70;99.90;;;6.17;82.40;101547.38;5014114;28;20104;-40
2020/12/21 10:01:13;;;;;;;3.10;1.40;;;7.80;99.90;;;6.19;82.36;101531.81;5013960;28;20045;-40
2020/12/21 10:03:42;;;;;;;3.88;1.55;;;7.80;99.90;;;6.21;82.27;101522.66;4964240;28;20041;-40
2020/12/21 10:06:12;;;;;;;3.92;1.55;;;7.80;99.90;;;6.25;82.47;101527.59;5012542;28;20054;-40
2020/12/21 10:08:41;;;;;;;4.32;1.65;;;7.80;99.90;;;6.32;81.96;101525.03;5012456;28;20054;-40
2020/12/21 10:11:08;;;;;;;5.97;1.73;;;7.90;99.90;;;6.31;82.18;101526.06;5012295;28;20046;-40
2020/12/21 10:13:36;;;;;;;6.20;1.90;;;7.90;99.90;;;6.37;82.38;101511.00;5012042;28;20045;-40
2020/12/21 10:16:03;;;;;;;3.78;1.42;;;7.90;99.90;;;6.44;82.12;101506.59;5012441;28;20040;-40
2020/12/21 10:18:30;;;;;;;6.22;1.52;;;8.00;99.90;;;6.49;82.05;101504.22;5012421;28;20096;-40
2020/12/21 10:20:57;;;;;;;3.80;1.40;;;8.00;99.90;;;6.58;81.93;101499.63;4979875;28;20129;-40
2020/12/21 10:23:24;;;;;;;7.72;1.60;;;8.10;99.90;;;6.64;81.54;101499.00;4995730;28;20050;-40
2020/12/21 10:25:51;;;;;;;5.72;1.70;;;8.10;99.90;;;6.72;81.74;101498.97;4963867;28;20077;-40
2020/12/21 10:28:19;;;;;;;5.18;1.45;;;8.20;99.90;;;6.79;81.59;101492.84;4996144;28;20467;-40
2020/12/21 10:30:46;;;;;;;5.60;1.77;;;8.30;99.90;;;6.88;81.26;101491.81;4995871;28;20531;-40
2020/12/21 10:33:13;;;;;;;4.93;1.58;;;8.40;99.90;;;6.93;79.88;101475.03;5011763;28;20046;-40
2020/12/21 10:35:40;;;;;;;3.78;1.77;;;8.40;99.90;;;6.94;80.51;101483.03;5011790;28;20037;-40